Terminal Aerodrome Forecast
Issued by NWS Boise, ID

Home | Current Version | Previous Version | Text Only | Print | Product List | Glossary On
Versions: 1 2 3 4 5 6 7 8 9 10 11 12 13 14 15 16 17
000
FTUS45 KBOI 062340
TAFBOI
TAF
KBOI 062340Z 0700/0724 30007KT P6SM VCTS BKN080CB OVC150
      TEMPO 0701/0703 VRB10G25KT P6SM -TSRA BKN050CB
     FM070300 14006KT P6SM SCT060 BKN100
     FM072100 30011KT P6SM VCSH BKN080 OVC150=

USA.gov is the U.S. government's official web portal to all federal, state and local government web resources and services.